Time;durP1;ratioP1;P1;durP2;ratioP2;P2;SDS_P1;SDS_P2;PMS_P1;PMS_P2;Temp;Humidity;BMP_temperature;BMP_pressure;BME280_temperature;BME280_humidity;BME280_pressure;Samples;Min_cycle;Max_cycle;Signal;HPM_P1;HPM_P2
2021/08/04 00:01:51;;;;;;;0.00;0.00;;;16.30;99.90;;;;;;5052443;28;21449;-83
2021/08/04 00:04:38;;;;;;;0.00;0.00;;;16.20;99.90;;;;;;5054530;28;20083;-84
2021/08/04 00:07:26;;;;;;;0.00;0.00;;;16.20;99.90;;;;;;5051293;28;20049;-83
2021/08/04 00:10:13;;;;;;;0.00;0.00;;;16.20;99.90;;;;;;5059621;28;20131;-85
2021/08/04 00:13:01;;;;;;;0.00;0.00;;;17.10;99.90;;;;;;5058051;28;20542;-83
2021/08/04 00:15:50;;;;;;;0.00;0.00;;;16.20;99.90;;;;;;5055590;28;20470;-83
2021/08/04 00:18:37;;;;;;;0.00;0.00;;;16.10;99.90;;;;;;5055943;28;20124;-84
2021/08/04 00:21:24;;;;;;;0.00;0.00;;;16.10;99.90;;;;;;5058634;28;20130;-83
2021/08/04 00:24:12;;;;;;;0.00;0.00;;;16.00;99.90;;;;;;5059909;28;20044;-84
2021/08/04 00:26:59;;;;;;;0.00;0.00;;;16.00;99.90;;;;;;5065059;28;20045;-82
2021/08/04 00:29:46;;;;;;;0.00;0.00;;;16.00;99.90;;;;;;5056405;28;20060;-82
2021/08/04 00:32:34;;;;;;;0.00;0.00;;;16.00;99.90;;;;;;5055848;28;20040;-84
2021/08/04 00:35:22;;;;;;;0.00;0.00;;;16.00;99.90;;;;;;5059846;28;20116;-83
2021/08/04 00:38:10;;;;;;;0.00;0.00;;;16.00;99.90;;;;;;5059493;28;20104;-84
2021/08/04 00:40:57;;;;;;;0.00;0.00;;;16.10;99.90;;;;;;5053715;28;20049;-84
2021/08/04 00:43:44;;;;;;;0.00;0.00;;;16.10;99.90;;;;;;5058419;28;20497;-82
2021/08/04 00:46:31;;;;;;;0.00;0.00;;;16.10;99.90;;;;;;5059121;28;20124;-83
2021/08/04 00:49:20;;;;;;;0.00;0.00;;;16.10;99.90;;;;;;5058059;28;20144;-81
2021/08/04 00:52:08;;;;;;;0.00;0.00;;;;;;;;;;5060297;28;20557;-83
2021/08/04 00:54:55;;;;;;;0.00;0.00;;;16.10;99.90;;;;;;5058357;28;20056;-83
2021/08/04 00:57:42;;;;;;;0.00;0.00;;;16.10;99.90;;;;;;5056357;28;20039;-84
2021/08/04 01:00:29;;;;;;;0.00;0.00;;;16.10;99.90;;;;;;5056930;28;20045;-83
2021/08/04 01:03:20;;;;;;;0.00;0.00;;;16.10;99.90;;;;;;5053525;28;20041;-84
2021/08/04 01:06:14;;;;;;;0.00;0.00;;;16.00;99.90;;;;;;5056292;28;20094;-84
2021/08/04 01:09:03;;;;;;;0.00;0.00;;;15.90;99.90;;;;;;5057277;28;20064;-83
2021/08/04 01:11:56;;;;;;;0.00;0.00;;;15.90;99.90;;;;;;5056047;28;20130;-84
2021/08/04 01:14:46;;;;;;;0.00;0.00;;;16.00;99.90;;;;;;5059805;28;20407;-85
2021/08/04 01:17:36;;;;;;;0.00;0.00;;;16.00;99.90;;;;;;5055003;28;20824;-82
2021/08/04 01:20:25;;;;;;;0.00;0.00;;;16.00;99.90;;;;;;5057340;28;20067;-85
2021/08/04 01:23:23;;;;;;;0.00;0.00;;;16.00;99.90;;;;;;5055610;28;20127;-83
2021/08/04 01:26:21;;;;;;;0.00;0.00;;;16.00;99.90;;;;;;5069092;28;20369;-83
2021/08/04 01:29:12;;;;;;;0.00;0.00;;;15.90;99.90;;;;;;5057315;28;20300;-84
2021/08/04 01:32:01;;;;;;;0.00;0.00;;;16.00;99.90;;;;;;5061353;28;20055;-81
2021/08/04 01:34:50;;;;;;;0.00;0.00;;;15.90;99.90;;;;;;5056087;28;20052;-84
2021/08/04 01:37:40;;;;;;;0.00;0.00;;;15.90;99.90;;;;;;5059676;28;20041;-84
2021/08/04 01:40:28;;;;;;;0.00;0.00;;;15.90;99.90;;;;;;5063219;28;20048;-81
2021/08/04 01:43:20;;;;;;;0.00;0.00;;;16.00;99.90;;;;;;5059704;28;20057;-83
2021/08/04 01:46:09;;;;;;;0.00;0.00;;;16.00;99.90;;;;;;5061486;28;20048;-83
2021/08/04 01:48:59;;;;;;;0.00;0.00;;;16.00;99.90;;;;;;5068082;28;20107;-84
2021/08/04 01:51:48;;;;;;;0.00;0.00;;;16.00;99.90;;;;;;5064395;28;20055;-84
2021/08/04 01:54:36;;;;;;;0.00;0.00;;;16.00;99.90;;;;;;5052869;28;20042;-83
2021/08/04 01:57:23;;;;;;;0.00;0.00;;;16.00;99.90;;;;;;5057489;28;20049;-83
2021/08/04 02:00:12;;;;;;;0.00;0.00;;;16.10;99.90;;;;;;5063140;28;20102;-82
2021/08/04 02:02:59;;;;;;;0.00;0.00;;;16.00;99.90;;;;;;5069744;28;20055;-84
2021/08/04 02:05:47;;;;;;;0.00;0.00;;;16.00;99.90;;;;;;5056484;28;20069;-84
2021/08/04 02:08:39;;;;;;;0.00;0.00;;;16.00;99.90;;;;;;5063472;28;20049;-82
2021/08/04 02:11:36;;;;;;;0.00;0.00;;;16.00;99.90;;;;;;5057933;28;20262;-83
2021/08/04 02:14:29;;;;;;;0.00;0.00;;;15.90;99.90;;;;;;5062527;28;20124;-83
2021/08/04 02:17:22;;;;;;;0.00;0.00;;;15.90;99.90;;;;;;5060794;28;20060;-84
2021/08/04 02:20:17;;;;;;;0.00;0.00;;;15.80;99.90;;;;;;5071814;28;20428;-83
2021/08/04 02:23:09;;;;;;;0.10;0.10;;;16.40;99.90;;;;;;5059266;28;20041;-81
2021/08/04 02:26:00;;;;;;;0.00;0.00;;;15.90;99.90;;;;;;5059334;28;20055;-84
2021/08/04 02:28:52;;;;;;;0.00;0.00;;;15.90;99.90;;;;;;5056671;28;20041;-85
2021/08/04 02:31:41;;;;;;;0.00;0.00;;;15.80;99.90;;;;;;5056939;28;20040;-83
2021/08/04 02:34:30;;;;;;;0.00;0.00;;;15.80;99.90;;;;;;5057237;28;20048;-82
2021/08/04 02:37:17;;;;;;;0.00;0.00;;;15.70;99.90;;;;;;5075226;28;20040;-84
2021/08/04 02:40:07;;;;;;;0.08;0.08;;;15.70;99.90;;;;;;5059394;28;20041;-82
2021/08/04 02:42:55;;;;;;;0.00;0.00;;;15.60;99.90;;;;;;5054173;28;20049;-84
2021/08/04 02:45:43;;;;;;;0.00;0.00;;;15.70;99.90;;;;;;5055973;28;20072;-84
2021/08/04 02:48:32;;;;;;;0.00;0.00;;;15.80;99.90;;;;;;5063430;28;20077;-81
2021/08/04 02:51:23;;;;;;;0.00;0.00;;;15.80;99.90;;;;;;5057827;28;20415;-81
2021/08/04 02:54:12;;;;;;;0.00;0.00;;;15.80;99.90;;;;;;5058528;28;20100;-81
2021/08/04 02:56:59;;;;;;;0.00;0.00;;;17.30;99.90;;;;;;5058823;28;20139;-82
2021/08/04 02:59:46;;;;;;;0.00;0.00;;;15.80;99.90;;;;;;5059644;28;20116;-83
2021/08/04 03:02:34;;;;;;;0.00;0.00;;;15.90;99.90;;;;;;5061559;28;20053;-84
2021/08/04 03:05:21;;;;;;;0.00;0.00;;;15.90;99.90;;;;;;5057909;28;20045;-84
2021/08/04 03:08:10;;;;;;;0.00;0.00;;;16.00;99.90;;;;;;5062507;28;20185;-84
2021/08/04 03:10:57;;;;;;;0.00;0.00;;;16.00;99.90;;;;;;5058711;28;20064;-83
2021/08/04 03:13:44;;;;;;;0.00;0.00;;;15.90;99.90;;;;;;5048050;28;20045;-81
2021/08/04 03:16:32;;;;;;;0.00;0.00;;;15.80;99.90;;;;;;5057603;28;20494;-84
2021/08/04 03:19:19;;;;;;;0.00;0.00;;;15.70;99.90;;;;;;5057560;28;20107;-83
2021/08/04 03:22:06;;;;;;;0.00;0.00;;;15.80;99.90;;;;;;5061214;28;20104;-82
2021/08/04 03:24:54;;;;;;;0.10;0.10;;;15.90;99.90;;;;;;5056830;28;20049;-84
2021/08/04 03:27:42;;;;;;;0.00;0.00;;;15.90;99.90;;;;;;5060623;28;20051;-83
2021/08/04 03:30:29;;;;;;;0.00;0.00;;;15.90;99.90;;;;;;5049018;28;20325;-84
2021/08/04 03:33:16;;;;;;;0.00;0.00;;;15.70;99.90;;;;;;5056967;28;20106;-84
2021/08/04 03:36:04;;;;;;;0.00;0.00;;;15.60;99.90;;;;;;5057017;28;20111;-84
2021/08/04 03:38:51;;;;;;;0.00;0.00;;;15.60;99.90;;;;;;5060045;28;20100;-84
2021/08/04 03:41:39;;;;;;;0.00;0.00;;;15.80;99.90;;;;;;5059715;28;20570;-83
2021/08/04 03:44:26;;;;;;;0.00;0.00;;;15.90;99.90;;;;;;5061497;28;20500;-84
2021/08/04 03:47:13;;;;;;;0.00;0.00;;;17.00;99.90;;;;;;5057197;28;20052;-84
2021/08/04 03:50:00;;;;;;;0.00;0.00;;;16.00;99.90;;;;;;5053933;28;20400;-81
2021/08/04 03:52:48;;;;;;;0.00;0.00;;;15.90;99.90;;;;;;5057730;28;20066;-82
2021/08/04 03:55:35;;;;;;;0.00;0.00;;;15.90;99.90;;;;;;5060390;28;20116;-83
2021/08/04 03:58:23;;;;;;;0.00;0.00;;;15.90;99.90;;;;;;5063647;28;20527;-84
2021/08/04 04:01:10;;;;;;;0.00;0.00;;;15.80;99.90;;;;;;5055789;28;20051;-84
2021/08/04 04:03:58;;;;;;;0.00;0.00;;;15.80;99.90;;;;;;5059887;28;20095;-83
2021/08/04 04:06:45;;;;;;;0.00;0.00;;;15.90;99.90;;;;;;5055021;28;20095;-85
2021/08/04 04:09:32;;;;;;;0.00;0.00;;;15.90;99.90;;;;;;5055737;28;20072;-83
2021/08/04 04:12:19;;;;;;;0.00;0.00;;;15.90;99.90;;;;;;5074923;28;20060;-84
2021/08/04 04:15:09;;;;;;;0.00;0.00;;;15.90;99.90;;;;;;5058352;28;20115;-81
2021/08/04 04:17:56;;;;;;;0.00;0.00;;;15.80;99.90;;;;;;5060324;28;20036;-82
2021/08/04 04:20:43;;;;;;;0.00;0.00;;;15.70;99.90;;;;;;5058082;28;20101;-84
2021/08/04 04:23:30;;;;;;;0.00;0.00;;;15.70;99.90;;;;;;5058018;28;20078;-83
2021/08/04 04:26:17;;;;;;;0.00;0.00;;;15.50;99.90;;;;;;5060276;28;20041;-84
2021/08/04 04:29:04;;;;;;;0.00;0.00;;;15.60;99.90;;;;;;5055726;28;20048;-80
2021/08/04 04:31:53;;;;;;;0.00;0.00;;;15.60;99.90;;;;;;5049272;28;20503;-83
2021/08/04 04:34:40;;;;;;;0.00;0.00;;;16.10;99.90;;;;;;5062707;28;20056;-81
2021/08/04 04:37:28;;;;;;;0.00;0.00;;;15.40;99.90;;;;;;5075444;28;20075;-84
2021/08/04 04:40:15;;;;;;;0.00;0.00;;;15.30;99.90;;;;;;5057746;28;20098;-84
2021/08/04 04:43:02;;;;;;;0.00;0.00;;;15.30;99.90;;;;;;5057024;28;20047;-85
2021/08/04 04:45:49;;;;;;;0.00;0.00;;;15.30;99.90;;;;;;5054779;28;20047;-83
2021/08/04 04:48:38;;;;;;;0.00;0.00;;;15.40;99.90;;;;;;5065012;28;20036;-84
2021/08/04 04:51:25;;;;;;;0.00;0.00;;;15.40;99.90;;;;;;5051990;28;20045;-83
2021/08/04 04:54:12;;;;;;;0.00;0.00;;;15.40;99.90;;;;;;5041610;28;20401;-83
2021/08/04 04:56:59;;;;;;;0.00;0.00;;;15.40;99.90;;;;;;5054927;28;20044;-84
2021/08/04 04:59:46;;;;;;;0.00;0.00;;;15.30;99.90;;;;;;5049404;28;20091;-80
2021/08/04 05:02:36;;;;;;;0.00;0.00;;;15.40;99.90;;;;;;5057415;28;20045;-83
2021/08/04 05:05:25;;;;;;;0.00;0.00;;;15.40;99.90;;;;;;5055679;28;20048;-83
2021/08/04 05:08:12;;;;;;;0.00;0.00;;;15.40;99.90;;;;;;5053372;28;20102;-83
2021/08/04 05:10:59;;;;;;;0.00;0.00;;;15.40;99.90;;;;;;5060784;28;20045;-83
2021/08/04 05:13:46;;;;;;;0.00;0.00;;;15.50;99.90;;;;;;5065449;28;20093;-84
2021/08/04 05:16:33;;;;;;;0.00;0.00;;;15.40;99.90;;;;;;5061648;28;20044;-84
2021/08/04 05:19:20;;;;;;;0.00;0.00;;;15.40;99.90;;;;;;5062873;28;20523;-83
2021/08/04 05:22:09;;;;;;;0.00;0.00;;;15.40;99.90;;;;;;5060257;28;20047;-83
2021/08/04 05:24:56;;;;;;;0.00;0.00;;;15.50;99.90;;;;;;5065087;28;20047;-82
2021/08/04 05:27:43;;;;;;;0.00;0.00;;;16.20;99.90;;;;;;5058979;28;20408;-84
2021/08/04 05:30:30;;;;;;;0.00;0.00;;;15.60;99.90;;;;;;5054457;28;20141;-83
2021/08/04 05:33:17;;;;;;;0.00;0.00;;;15.70;99.90;;;;;;5059963;28;20136;-85
2021/08/04 05:36:04;;;;;;;0.00;0.00;;;15.90;99.90;;;;;;5055293;28;20047;-81
2021/08/04 05:38:53;;;;;;;0.00;0.00;;;16.10;99.90;;;;;;5054863;28;20045;-85
2021/08/04 05:41:42;;;;;;;0.00;0.00;;;16.20;99.90;;;;;;5060435;28;20405;-82
2021/08/04 05:44:29;;;;;;;0.00;0.00;;;16.30;99.90;;;;;;5055727;28;20500;-84
2021/08/04 05:47:16;;;;;;;0.00;0.00;;;16.10;99.90;;;;;;5056621;28;20252;-84
2021/08/04 05:50:04;;;;;;;0.00;0.00;;;15.90;99.90;;;;;;5052974;28;20041;-82
2021/08/04 05:52:52;;;;;;;0.00;0.00;;;16.00;99.90;;;;;;5053065;28;20045;-83
2021/08/04 05:55:40;;;;;;;0.00;0.00;;;16.30;99.90;;;;;;5049682;28;20071;-84
2021/08/04 05:58:27;;;;;;;0.00;0.00;;;16.10;99.90;;;;;;5057823;28;20048;-85
2021/08/04 06:01:14;;;;;;;0.00;0.00;;;15.90;99.90;;;;;;5055922;28;20183;-83
2021/08/04 06:04:02;;;;;;;0.00;0.00;;;16.00;99.90;;;;;;5052350;28;20425;-82
2021/08/04 06:06:49;;;;;;;0.00;0.00;;;16.10;99.90;;;;;;5055156;28;20067;-84
2021/08/04 06:09:36;;;;;;;0.00;0.00;;;16.20;99.90;;;;;;5050384;28;20048;-83
2021/08/04 06:12:25;;;;;;;0.00;0.00;;;16.50;99.90;;;;;;5055171;28;20041;-83
2021/08/04 06:15:13;;;;;;;0.00;0.00;;;16.50;99.90;;;;;;5063458;28;20071;-84
2021/08/04 06:18:00;;;;;;;0.00;0.00;;;16.40;99.90;;;;;;5058931;28;20408;-84
2021/08/04 06:20:48;;;;;;;0.00;0.00;;;16.50;99.90;;;;;;5052332;28;20191;-84
2021/08/04 06:23:36;;;;;;;0.00;0.00;;;16.60;99.90;;;;;;5059128;28;20041;-82
2021/08/04 06:26:23;;;;;;;0.00;0.00;;;16.80;99.90;;;;;;5060282;28;20063;-84
2021/08/04 06:29:11;;;;;;;0.00;0.00;;;16.80;99.90;;;;;;5058691;28;20115;-84
2021/08/04 06:31:58;;;;;;;0.00;0.00;;;16.70;99.90;;;;;;5045202;28;20038;-84
2021/08/04 06:34:45;;;;;;;0.00;0.00;;;16.80;99.90;;;;;;5055734;28;20123;-84
2021/08/04 06:37:32;;;;;;;0.00;0.00;;;16.90;99.90;;;;;;5058982;28;20037;-83
2021/08/04 06:40:20;;;;;;;0.00;0.00;;;16.90;99.90;;;;;;5057488;28;20052;-84
2021/08/04 06:43:07;;;;;;;0.00;0.00;;;16.80;99.90;;;;;;5054160;28;20045;-83
2021/08/04 06:45:55;;;;;;;0.00;0.00;;;16.70;99.90;;;;;;5056558;28;20037;-84
2021/08/04 06:48:43;;;;;;;0.00;0.00;;;16.60;99.90;;;;;;5052473;28;20402;-84
2021/08/04 06:51:32;;;;;;;0.00;0.00;;;16.40;99.90;;;;;;5062566;28;20037;-83
2021/08/04 06:54:19;;;;;;;0.00;0.00;;;16.10;99.90;;;;;;5057577;28;20097;-83
2021/08/04 06:57:06;;;;;;;0.00;0.00;;;16.20;99.90;;;;;;5059186;28;20095;-84
2021/08/04 06:59:53;;;;;;;0.00;0.00;;;16.30;99.90;;;;;;5058945;28;20502;-83
2021/08/04 07:02:42;;;;;;;0.00;0.00;;;16.50;99.90;;;;;;5056602;28;20508;-84
2021/08/04 07:05:30;;;;;;;0.00;0.00;;;16.70;99.90;;;;;;5057555;28;20045;-84
2021/08/04 07:08:18;;;;;;;0.00;0.00;;;16.90;99.90;;;;;;5053711;28;20163;-84
2021/08/04 07:11:12;;;;;;;0.00;0.00;;;17.00;99.90;;;;;;5056787;28;20044;-84
2021/08/04 07:14:02;;;;;;;0.00;0.00;;;16.90;99.90;;;;;;5059102;28;20479;-84
2021/08/04 07:16:49;;;;;;;0.00;0.00;;;16.80;99.90;;;;;;5054377;28;20045;-84
2021/08/04 07:19:39;;;;;;;0.00;0.00;;;17.00;99.90;;;;;;5050626;28;20045;-84
2021/08/04 07:22:26;;;;;;;0.00;0.00;;;17.20;99.90;;;;;;5056219;28;20053;-85
2021/08/04 07:25:14;;;;;;;0.00;0.00;;;17.10;99.90;;;;;;5057597;28;20563;-84
2021/08/04 07:28:01;;;;;;;0.00;0.00;;;17.20;99.90;;;;;;5053462;28;20172;-83
2021/08/04 07:30:49;;;;;;;0.00;0.00;;;17.30;99.90;;;;;;5049442;28;20047;-83
2021/08/04 07:33:36;;;;;;;0.00;0.00;;;17.60;99.90;;;;;;5047631;28;20128;-83
2021/08/04 07:36:24;;;;;;;0.00;0.00;;;17.50;99.90;;;;;;5050724;28;20043;-82
2021/08/04 07:39:11;;;;;;;0.00;0.00;;;17.50;99.90;;;;;;5058877;28;20048;-83
2021/08/04 07:41:58;;;;;;;0.00;0.00;;;17.60;99.90;;;;;;5048770;28;20194;-84
2021/08/04 07:44:46;;;;;;;0.00;0.00;;;17.80;99.90;;;;;;5046627;28;20047;-83
2021/08/04 07:47:33;;;;;;;0.00;0.00;;;17.50;99.90;;;;;;5043875;28;20049;-84
2021/08/04 07:50:20;;;;;;;0.00;0.00;;;17.80;99.90;;;;;;5047671;28;20049;-81
2021/08/04 07:53:08;;;;;;;0.00;0.00;;;17.70;99.90;;;;;;5050893;28;20120;-85
2021/08/04 07:55:59;;;;;;;0.00;0.00;;;17.70;99.90;;;;;;5042578;28;20423;-84
2021/08/04 07:58:46;;;;;;;0.00;0.00;;;17.70;99.90;;;;;;5053288;28;20127;-84
2021/08/04 08:01:33;;;;;;;0.00;0.00;;;17.90;99.90;;;;;;5044467;28;20086;-84
2021/08/04 08:04:20;;;;;;;0.00;0.00;;;18.20;99.90;;;;;;5050545;28;20033;-82
2021/08/04 08:07:08;;;;;;;0.00;0.00;;;18.50;99.90;;;;;;5051211;28;20083;-84
2021/08/04 08:09:56;;;;;;;0.00;0.00;;;18.80;99.90;;;;;;5050796;28;20619;-83
2021/08/04 08:12:43;;;;;;;0.00;0.00;;;18.80;99.90;;;;;;5049939;28;20040;-82
2021/08/04 08:15:31;;;;;;;0.00;0.00;;;18.80;99.90;;;;;;5050200;28;20045;-83
2021/08/04 08:18:18;;;;;;;0.00;0.00;;;18.10;99.90;;;;;;5053694;28;20532;-83
2021/08/04 08:21:06;;;;;;;0.00;0.00;;;17.80;99.90;;;;;;5049155;28;20078;-84
2021/08/04 08:23:53;;;;;;;0.00;0.00;;;17.80;99.90;;;;;;5048855;28;20120;-82
2021/08/04 08:26:43;;;;;;;0.00;0.00;;;18.20;99.90;;;;;;5048172;28;20045;-83
2021/08/04 08:29:30;;;;;;;0.00;0.00;;;18.20;99.90;;;;;;5049710;28;20068;-83
2021/08/04 08:32:17;;;;;;;0.00;0.00;;;18.50;99.90;;;;;;5052145;28;20045;-82
2021/08/04 08:35:06;;;;;;;0.00;0.00;;;18.40;99.90;;;;;;5047094;28;20044;-83
2021/08/04 08:37:53;;;;;;;0.00;0.00;;;18.60;99.90;;;;;;5054099;28;20037;-82
2021/08/04 08:40:40;;;;;;;0.00;0.00;;;18.50;99.90;;;;;;5047939;28;20382;-81
2021/08/04 08:43:29;;;;;;;0.00;0.00;;;18.80;99.90;;;;;;5047535;28;20076;-81
2021/08/04 08:46:17;;;;;;;0.00;0.00;;;18.90;99.90;;;;;;5045913;28;20522;-81
2021/08/04 08:49:04;;;;;;;0.00;0.00;;;18.90;99.90;;;;;;5047731;28;20083;-83
2021/08/04 08:51:52;;;;;;;0.00;0.00;;;19.20;99.90;;;;;;5055464;28;20052;-82
2021/08/04 08:54:39;;;;;;;0.00;0.00;;;19.40;99.90;;;;;;5052542;28;20052;-83
2021/08/04 08:57:27;;;;;;;0.00;0.00;;;19.20;99.90;;;;;;5050919;28;20114;-83
2021/08/04 09:00:16;;;;;;;0.00;0.00;;;19.30;99.90;;;;;;5049291;28;20618;-82
2021/08/04 09:03:03;;;;;;;0.00;0.00;;;19.10;99.90;;;;;;5046471;28;20071;-83
2021/08/04 09:05:53;;;;;;;0.00;0.00;;;19.20;99.90;;;;;;5049175;28;20048;-83
2021/08/04 09:08:40;;;;;;;0.00;0.00;;;19.00;99.90;;;;;;5051611;28;20118;-81
2021/08/04 09:11:27;;;;;;;0.00;0.00;;;19.30;99.90;;;;;;5044447;28;20049;-82
2021/08/04 09:14:14;;;;;;;0.00;0.00;;;19.30;99.90;;;;;;5050107;28;20044;-80
2021/08/04 09:17:06;;;;;;;0.00;0.00;;;19.30;99.90;;;;;;5046020;28;20049;-84
2021/08/04 09:19:53;;;;;;;0.00;0.00;;;19.40;99.90;;;;;;5049927;28;20040;-84
2021/08/04 09:22:40;;;;;;;0.00;0.00;;;19.40;99.90;;;;;;5040513;28;20075;-83
2021/08/04 09:25:28;;;;;;;0.00;0.00;;;19.40;99.90;;;;;;5049012;28;20044;-83
2021/08/04 09:28:15;;;;;;;0.00;0.00;;;19.40;99.90;;;;;;5052258;28;20053;-81
2021/08/04 09:31:03;;;;;;;0.00;0.00;;;20.20;99.90;;;;;;5053501;28;20049;-83
2021/08/04 09:33:51;;;;;;;0.00;0.00;;;19.40;99.90;;;;;;5047447;28;20131;-83
2021/08/04 09:36:38;;;;;;;0.00;0.00;;;19.30;99.90;;;;;;5045204;28;20063;-84
2021/08/04 09:39:25;;;;;;;0.00;0.00;;;19.10;99.90;;;;;;5057236;28;20166;-82
2021/08/04 09:42:14;;;;;;;0.00;0.00;;;19.20;99.90;;;;;;5052566;28;20506;-83
2021/08/04 09:45:01;;;;;;;0.00;0.00;;;19.50;99.90;;;;;;5053279;28;20091;-83
2021/08/04 09:48:11;;;;;;;0.00;0.00;;;19.60;99.90;;;;;;5050777;28;20139;-82
2021/08/04 09:51:02;;;;;;;0.00;0.00;;;19.80;99.90;;;;;;5049887;28;20102;-82
2021/08/04 09:54:06;;;;;;;0.00;0.00;;;19.90;99.90;;;;;;5046685;28;20055;-83
2021/08/04 09:56:57;;;;;;;0.00;0.00;;;20.00;99.90;;;;;;5052918;28;20037;-84
2021/08/04 10:00:06;;;;;;;0.00;0.00;;;19.90;99.90;;;;;;5050396;28;20577;-84
2021/08/04 10:02:53;;;;;;;0.00;0.00;;;19.80;99.90;;;;;;5049780;28;20385;-83
2021/08/04 10:05:43;;;;;;;0.00;0.00;;;19.80;99.90;;;;;;5052532;28;20045;-83
2021/08/04 10:08:31;;;;;;;0.00;0.00;;;19.70;99.90;;;;;;5053541;28;20059;-83
2021/08/04 10:11:19;;;;;;;0.00;0.00;;;19.40;99.90;;;;;;5064020;28;20131;-84
2021/08/04 10:14:06;;;;;;;0.00;0.00;;;19.60;99.90;;;;;;5069567;28;20133;-84
2021/08/04 10:16:54;;;;;;;0.00;0.00;;;19.70;99.90;;;;;;5056298;28;20404;-83
2021/08/04 10:19:43;;;;;;;0.00;0.00;;;19.60;99.90;;;;;;5053813;28;20040;-83
2021/08/04 10:22:30;;;;;;;0.00;0.00;;;19.60;99.90;;;;;;5056561;28;20099;-83
2021/08/04 10:25:19;;;;;;;0.00;0.00;;;19.60;99.90;;;;;;5053156;28;20143;-83
2021/08/04 10:28:07;;;;;;;0.00;0.00;;;19.40;99.90;;;;;;5048781;28;20052;-83
2021/08/04 10:30:56;;;;;;;0.00;0.00;;;19.60;99.90;;;;;;5050168;28;20094;-82
2021/08/04 10:33:43;;;;;;;0.00;0.00;;;19.60;99.90;;;;;;5049931;28;20048;-83
2021/08/04 10:36:32;;;;;;;0.00;0.00;;;19.60;99.90;;;;;;5051704;28;20045;-84
2021/08/04 10:39:20;;;;;;;0.00;0.00;;;19.60;99.90;;;;;;5048137;28;20041;-83
2021/08/04 10:42:09;;;;;;;0.00;0.00;;;19.60;99.90;;;;;;5049115;28;20044;-84
2021/08/04 10:45:33;;;;;;;0.00;0.00;;;19.70;99.90;;;;;;5046855;28;20128;-83
2021/08/04 10:48:23;;;;;;;0.00;0.00;;;19.60;99.90;;;;;;5045841;28;20092;-84
2021/08/04 10:51:12;;;;;;;;;;;19.70;99.90;;;;;;5050574;28;20041;-81
2021/08/04 10:54:14;;;;;;;0.00;0.00;;;19.90;99.90;;;;;;5065147;28;19921;-83
2021/08/04 10:57:10;;;;;;;0.00;0.00;;;20.00;99.90;;;;;;5044629;28;20049;-83
2021/08/04 11:00:21;;;;;;;0.00;0.00;;;20.00;99.90;;;;;;5047596;28;20443;-83
2021/08/04 11:03:43;;;;;;;0.00;0.00;;;20.00;99.90;;;;;;5062878;28;20120;-83
2021/08/04 11:06:30;;;;;;;0.00;0.00;;;20.10;99.90;;;;;;5048082;28;20044;-84
2021/08/04 11:09:42;;;;;;;0.00;0.00;;;20.10;99.90;;;;;;5049035;28;20053;-83
2021/08/04 11:12:43;;;;;;;0.00;0.00;;;20.20;99.90;;;;;;5047004;28;20072;-84
2021/08/04 11:15:31;;;;;;;0.00;0.00;;;20.20;99.90;;;;;;5050692;28;20044;-84
2021/08/04 11:18:18;;;;;;;0.00;0.00;;;20.30;99.90;;;;;;5050732;28;20052;-84
2021/08/04 11:21:11;;;;;;;0.00;0.00;;;20.60;99.90;;;;;;5043709;28;20040;-83
2021/08/04 11:23:59;;;;;;;0.00;0.00;;;20.50;99.90;;;;;;5050074;28;20056;-83
2021/08/04 11:27:03;;;;;;;0.00;0.00;;;20.50;99.90;;;;;;5033166;28;20055;-83
2021/08/04 11:29:53;;;;;;;0.00;0.00;;;20.60;99.90;;;;;;5052203;28;20051;-84
2021/08/04 11:32:40;;;;;;;0.00;0.00;;;20.70;99.90;;;;;;5049124;28;20448;-83
2021/08/04 11:35:28;;;;;;;0.00;0.00;;;20.60;99.90;;;;;;5054298;28;20420;-83
2021/08/04 11:38:34;;;;;;;0.00;0.00;;;20.70;99.90;;;;;;5047693;28;20135;-83
2021/08/04 11:41:30;;;;;;;0.00;0.00;;;21.00;99.90;;;;;;5051171;28;20521;-83
2021/08/04 11:44:20;;;;;;;0.00;0.00;;;21.30;99.90;;;;;;5044914;28;20161;-83
2021/08/04 11:47:10;;;;;;;0.00;0.00;;;21.50;99.90;;;;;;5048534;28;20124;-84
2021/08/04 11:50:04;;;;;;;0.00;0.00;;;21.70;99.90;;;;;;5047625;28;20171;-83
2021/08/04 11:52:53;;;;;;;0.00;0.00;;;21.50;99.70;;;;;;5046752;28;20044;-83
2021/08/04 11:55:40;;;;;;;0.00;0.00;;;21.70;99.90;;;;;;5047969;28;20317;-83
2021/08/04 11:58:28;;;;;;;0.00;0.00;;;23.00;99.90;;;;;;5041391;28;20115;-83
2021/08/04 12:01:15;;;;;;;0.00;0.00;;;22.00;98.40;;;;;;5043047;28;20053;-83
2021/08/04 12:04:09;;;;;;;0.00;0.00;;;22.00;99.10;;;;;;5047937;28;20048;-83
2021/08/04 12:07:00;;;;;;;0.00;0.00;;;21.90;99.40;;;;;;5050111;28;20052;-84
2021/08/04 12:09:47;;;;;;;0.00;0.00;;;22.00;98.50;;;;;;5061270;28;20051;-83
2021/08/04 12:12:36;;;;;;;0.00;0.00;;;22.00;98.60;;;;;;5041124;28;20045;-81
2021/08/04 12:15:25;;;;;;;0.00;0.00;;;22.10;99.00;;;;;;5058833;28;20146;-83
2021/08/04 12:18:13;;;;;;;0.00;0.00;;;22.80;99.70;;;;;;5042334;28;20084;-83
2021/08/04 12:21:01;;;;;;;0.00;0.00;;;21.90;99.10;;;;;;5045071;28;20053;-84
2021/08/04 12:23:57;;;;;;;0.00;0.00;;;21.70;99.10;;;;;;5054977;28;20072;-82
2021/08/04 12:26:45;;;;;;;0.00;0.00;;;21.60;99.10;;;;;;5044253;28;20037;-83
2021/08/04 12:29:32;;;;;;;0.00;0.00;;;21.70;99.10;;;;;;5042207;28;20912;-83
2021/08/04 12:32:22;;;;;;;0.00;0.00;;;21.70;98.80;;;;;;5056014;28;20500;-83
2021/08/04 12:35:15;;;;;;;0.00;0.00;;;21.80;99.40;;;;;;5049143;28;20496;-84
2021/08/04 12:38:05;;;;;;;0.00;0.00;;;21.80;99.30;;;;;;5055021;28;20053;-84
2021/08/04 12:40:54;;;;;;;0.00;0.00;;;22.10;98.60;;;;;;5043020;28;20637;-85
2021/08/04 12:43:43;;;;;;;0.00;0.00;;;21.90;98.60;;;;;;5049259;28;20052;-84
2021/08/04 12:46:32;;;;;;;0.00;0.00;;;21.80;99.10;;;;;;5053225;28;20509;-84
2021/08/04 12:49:26;;;;;;;0.00;0.00;;;21.60;99.60;;;;;;5036386;28;20501;-83
2021/08/04 12:52:13;;;;;;;0.00;0.00;;;21.80;99.70;;;;;;5028757;28;20882;-85
2021/08/04 12:55:11;;;;;;;0.00;0.00;;;21.70;99.00;;;;;;5044506;28;20558;-83
2021/08/04 12:58:04;;;;;;;0.00;0.00;;;21.70;98.40;;;;;;5045251;28;20055;-84
2021/08/04 13:00:51;;;;;;;0.00;0.00;;;21.80;98.80;;;;;;5047006;28;20524;-83
2021/08/04 13:03:38;;;;;;;0.00;0.00;;;21.60;98.90;;;;;;5050273;28;20056;-83
2021/08/04 13:06:48;;;;;;;0.00;0.00;;;21.70;98.80;;;;;;5047660;28;20071;-84
2021/08/04 13:09:50;;;;;;;0.00;0.00;;;22.00;98.50;;;;;;5054164;28;20128;-84
2021/08/04 13:12:38;;;;;;;0.00;0.00;;;22.30;98.70;;;;;;5048701;28;20057;-83
2021/08/04 13:15:26;;;;;;;0.10;0.00;;;22.70;98.00;;;;;;5045374;28;20055;-84
2021/08/04 13:18:14;;;;;;;0.00;0.00;;;22.80;98.00;;;;;;5046573;28;20153;-84
2021/08/04 13:21:11;;;;;;;0.00;0.00;;;23.00;97.80;;;;;;5049668;28;20052;-84
2021/08/04 13:23:58;;;;;;;0.00;0.00;;;22.90;97.20;;;;;;5047272;28;20037;-85
2021/08/04 13:26:45;;;;;;;0.00;0.00;;;23.00;97.00;;;;;;5053347;28;20047;-84
2021/08/04 13:29:34;;;;;;;0.00;0.00;;;23.20;97.30;;;;;;5058915;28;20568;-85
2021/08/04 13:32:24;;;;;;;0.00;0.00;;;23.30;96.20;;;;;;5051437;28;20053;-84
2021/08/04 13:35:11;;;;;;;0.00;0.00;;;22.80;96.30;;;;;;5060184;28;20423;-85
2021/08/04 13:37:58;;;;;;;0.00;0.00;;;22.70;96.40;;;;;;5043840;28;20041;-84
2021/08/04 13:40:47;;;;;;;0.00;0.00;;;22.90;96.50;;;;;;5040552;28;20202;-84
2021/08/04 13:43:34;;;;;;;0.00;0.00;;;22.80;96.80;;;;;;5046963;28;20049;-85
2021/08/04 13:46:22;;;;;;;0.00;0.00;;;22.80;96.80;;;;;;5050591;28;20479;-82
2021/08/04 13:49:09;;;;;;;0.00;0.00;;;23.10;96.60;;;;;;5045175;28;20049;-83
2021/08/04 13:51:56;;;;;;;0.00;0.00;;;23.40;96.50;;;;;;5052406;28;20084;-81
2021/08/04 13:54:44;;;;;;;0.00;0.00;;;23.10;96.40;;;;;;5065285;28;20149;-84
2021/08/04 13:57:31;;;;;;;0.00;0.00;;;23.60;97.30;;;;;;5049252;28;20534;-85
2021/08/04 14:00:20;;;;;;;0.00;0.00;;;23.10;98.60;;;;;;5045786;28;20053;-83
2021/08/04 14:03:08;;;;;;;0.00;0.00;;;23.20;98.60;;;;;;5048590;28;20160;-83
2021/08/04 14:05:55;;;;;;;0.00;0.00;;;23.10;98.90;;;;;;5049499;28;20397;-84
2021/08/04 14:08:43;;;;;;;0.00;0.00;;;22.90;99.40;;;;;;5045613;28;20080;-84
2021/08/04 14:11:30;;;;;;;0.00;0.00;;;23.00;99.40;;;;;;5039198;28;20104;-83
2021/08/04 14:14:17;;;;;;;0.00;0.00;;;22.70;99.10;;;;;;5050001;28;20123;-84
2021/08/04 14:17:04;;;;;;;0.00;0.00;;;22.50;99.50;;;;;;5052199;28;20496;-84
2021/08/04 14:19:53;;;;;;;0.00;0.00;;;22.50;99.90;;;;;;5055274;28;20048;-84
2021/08/04 14:22:40;;;;;;;0.00;0.00;;;23.30;99.90;;;;;;5059611;28;20057;-84
2021/08/04 14:25:28;;;;;;;0.00;0.00;;;22.20;99.90;;;;;;5047416;28;20069;-83
2021/08/04 14:28:16;;;;;;;0.00;0.00;;;22.10;99.90;;;;;;5051651;28;20068;-83
2021/08/04 14:31:03;;;;;;;0.00;0.00;;;22.00;99.90;;;;;;5045847;28;20670;-85
2021/08/04 14:33:50;;;;;;;0.00;0.00;;;21.70;99.90;;;;;;5056633;28;20045;-84
2021/08/04 14:36:38;;;;;;;0.00;0.00;;;21.50;99.90;;;;;;5054919;28;20033;-84
2021/08/04 14:39:26;;;;;;;0.00;0.00;;;21.10;99.90;;;;;;5056714;28;20103;-83
2021/08/04 14:42:13;;;;;;;0.00;0.00;;;20.90;99.90;;;;;;5048451;28;20090;-84